Time;durP1;ratioP1;P1;durP2;ratioP2;P2;SDS_P1;SDS_P2;PMS_P1;PMS_P2;Temp;Humidity;BMP_temperature;BMP_pressure;BME280_temperature;BME280_humidity;BME280_pressure;Samples;Min_cycle;Max_cycle;Signal;HPM_P1;HPM_P2
2023/10/30 00:01:40;;;;;;;9.15;1.00;;;10.30;99.90;;;;;;4962846;28;20380;-76
2023/10/30 00:04:06;;;;;;;9.60;1.35;;;10.40;99.90;;;;;;4962967;28;20039;-75
2023/10/30 00:06:32;;;;;;;10.15;1.42;;;10.30;99.90;;;;;;4963593;28;20043;-76
2023/10/30 00:08:58;;;;;;;7.40;1.25;;;10.30;99.90;;;;;;4945091;29;20055;-71
2023/10/30 00:11:24;;;;;;;6.07;1.02;;;10.30;99.90;;;;;;4963949;28;20133;-77
2023/10/30 00:13:49;;;;;;;8.85;1.67;;;10.20;99.90;;;;;;4966039;28;20097;-77
2023/10/30 00:16:15;;;;;;;6.65;1.10;;;10.20;99.90;;;;;;4948824;28;20051;-73
2023/10/30 00:18:42;;;;;;;9.02;1.20;;;10.20;99.90;;;;;;4946311;28;20093;-76
2023/10/30 00:21:08;;;;;;;8.95;1.42;;;10.20;99.90;;;;;;4962777;28;20047;-77
2023/10/30 00:23:34;;;;;;;9.20;1.10;;;10.10;99.90;;;;;;4963310;28;20051;-73
2023/10/30 00:26:01;;;;;;;10.55;1.52;;;10.10;99.90;;;;;;4948275;28;20089;-73
2023/10/30 00:28:34;;;;;;;7.85;0.90;;;10.10;99.90;;;;;;4965465;28;20050;-76
2023/10/30 00:31:02;;;;;;;6.40;0.90;;;10.10;99.90;;;;;;4953509;28;20050;-78
2023/10/30 00:33:28;;;;;;;6.85;1.00;;;10.10;99.90;;;;;;4944871;29;20513;-76
2023/10/30 00:35:54;;;;;;;5.40;1.00;;;10.00;99.90;;;;;;4964264;28;20051;-77
2023/10/30 00:38:19;;;;;;;5.93;1.00;;;10.00;99.90;;;;;;4943410;29;20053;-76
2023/10/30 00:40:45;;;;;;;5.55;1.10;;;10.00;99.90;;;;;;4961992;28;20443;-75
2023/10/30 00:43:11;;;;;;;6.78;1.00;;;9.90;99.90;;;;;;4965175;28;20110;-73
2023/10/30 00:45:36;;;;;;;5.47;0.88;;;9.90;99.90;;;;;;4947786;28;20058;-77
2023/10/30 00:48:02;;;;;;;7.28;0.98;;;9.90;99.90;;;;;;4963777;28;20054;-76
2023/10/30 00:50:28;;;;;;;5.72;1.08;;;9.90;99.90;;;;;;4966147;28;20051;-70
2023/10/30 00:52:53;;;;;;;6.00;0.88;;;9.80;99.90;;;;;;4965287;28;20089;-78
2023/10/30 00:55:19;;;;;;;4.88;0.85;;;9.80;99.90;;;;;;4961761;28;20047;-71
2023/10/30 00:57:45;;;;;;;5.75;0.90;;;9.80;99.90;;;;;;4962122;28;20039;-78
2023/10/30 01:00:11;;;;;;;4.97;0.70;;;9.80;99.90;;;;;;4944708;28;20379;-77
2023/10/30 01:02:37;;;;;;;4.53;0.80;;;9.70;99.90;;;;;;4965104;28;20137;-74
2023/10/30 01:05:03;;;;;;;6.03;1.08;;;9.70;99.90;;;;;;4965279;28;20070;-75
2023/10/30 01:07:28;;;;;;;5.47;0.80;;;9.70;99.90;;;;;;4962484;28;20054;-71
2023/10/30 01:09:56;;;;;;;6.40;0.98;;;9.70;99.90;;;;;;4961341;28;20058;-73
2023/10/30 01:12:22;;;;;;;3.45;0.80;;;9.60;99.90;;;;;;4945365;28;20399;-71
2023/10/30 01:14:48;;;;;;;3.38;0.73;;;9.60;99.90;;;;;;4964674;28;20059;-78
2023/10/30 01:17:13;;;;;;;6.32;0.88;;;9.60;99.90;;;;;;4964310;28;20054;-74
2023/10/30 01:19:39;;;;;;;2.65;0.80;;;9.50;99.90;;;;;;4944860;28;20517;-70
2023/10/30 01:22:05;;;;;;;6.00;0.80;;;9.60;99.90;;;;;;4943841;29;20047;-76
2023/10/30 01:24:30;;;;;;;4.80;0.90;;;9.50;99.90;;;;;;4961765;28;20118;-78
2023/10/30 01:26:56;;;;;;;9.10;1.10;;;9.60;99.90;;;;;;4964177;28;20190;-73
2023/10/30 01:29:22;;;;;;;6.07;1.02;;;9.50;99.90;;;;;;4964648;28;20722;-75
2023/10/30 01:31:47;;;;;;;6.90;0.88;;;9.50;99.90;;;;;;4957960;28;20051;-73
2023/10/30 01:34:13;;;;;;;5.35;0.80;;;9.50;99.90;;;;;;4946958;28;20121;-71
2023/10/30 01:36:38;;;;;;;4.15;1.00;;;9.50;99.90;;;;;;4964443;28;20043;-71
2023/10/30 01:39:04;;;;;;;7.88;1.10;;;9.50;99.90;;;;;;4961468;28;20094;-75
2023/10/30 01:41:30;;;;;;;4.78;0.82;;;9.40;99.90;;;;;;4943258;28;20043;-77
2023/10/30 01:43:55;;;;;;;6.88;1.38;;;9.40;99.90;;;;;;4944949;28;20055;-76
2023/10/30 01:46:21;;;;;;;8.23;1.40;;;9.40;99.90;;;;;;4964207;28;20154;-77
2023/10/30 01:48:47;;;;;;;2.88;0.73;;;9.40;99.90;;;;;;4964363;28;20796;-70
2023/10/30 01:51:16;;;;;;;7.25;1.15;;;9.40;99.90;;;;;;4961089;28;20483;-76
2023/10/30 01:53:44;;;;;;;7.45;1.15;;;9.50;99.90;;;;;;4960975;28;20035;-76
2023/10/30 01:56:10;;;;;;;4.15;1.15;;;9.40;99.90;;;;;;4962403;28;20046;-70
2023/10/30 01:58:36;;;;;;;6.57;1.83;;;9.40;99.90;;;;;;4943666;29;20118;-76
2023/10/30 02:01:02;;;;;;;8.00;1.42;;;9.40;99.90;;;;;;4961178;28;20113;-74
2023/10/30 02:03:27;;;;;;;8.18;1.45;;;9.40;99.90;;;;;;4951435;28;20130;-74
2023/10/30 02:05:54;;;;;;;8.25;1.38;;;9.40;99.90;;;;;;4943277;29;20090;-75
2023/10/30 02:08:21;;;;;;;7.70;2.00;;;9.40;99.90;;;;;;4961937;28;20079;-77
2023/10/30 02:10:47;;;;;;;6.53;1.33;;;9.40;99.90;;;;;;4946414;28;20502;-77
2023/10/30 02:13:12;;;;;;;8.20;1.48;;;9.40;99.90;;;;;;4963319;28;20061;-76
2023/10/30 02:15:38;;;;;;;9.75;1.58;;;9.30;99.90;;;;;;4960183;28;20047;-76
2023/10/30 02:18:04;;;;;;;7.25;1.70;;;9.50;99.90;;;;;;4960288;28;20066;-76
2023/10/30 02:20:30;;;;;;;7.22;1.35;;;9.30;99.90;;;;;;4943960;28;20051;-71
2023/10/30 02:22:55;;;;;;;6.68;1.38;;;9.30;99.90;;;;;;4963418;28;20078;-77
2023/10/30 02:25:25;;;;;;;7.03;1.52;;;9.30;99.90;;;;;;4963472;28;20046;-71
2023/10/30 02:27:51;;;;;;;10.20;1.60;;;9.30;99.90;;;;;;4960192;28;20043;-72
2023/10/30 02:30:18;;;;;;;4.13;1.23;;;9.30;99.90;;;;;;4960504;28;20082;-81
2023/10/30 02:32:46;;;;;;;6.53;1.55;;;9.40;99.90;;;;;;4943969;28;20066;-71
2023/10/30 02:35:16;;;;;;;7.82;1.85;;;9.20;99.90;;;;;;4943017;29;20057;-73
2023/10/30 02:37:42;;;;;;;7.13;1.45;;;9.20;99.90;;;;;;4943046;28;20503;-76
2023/10/30 02:40:09;;;;;;;5.43;1.13;;;9.20;99.90;;;;;;4963268;28;20038;-76
2023/10/30 02:42:35;;;;;;;8.98;1.88;;;9.20;99.90;;;;;;4939436;29;20047;-77
2023/10/30 02:45:01;;;;;;;7.95;1.70;;;9.20;99.90;;;;;;4944473;28;20062;-70
2023/10/30 02:47:28;;;;;;;6.57;1.63;;;9.20;99.90;;;;;;4945615;28;20043;-77
2023/10/30 02:49:54;;;;;;;6.90;1.52;;;9.20;99.90;;;;;;4962453;28;20062;-75
2023/10/30 02:52:19;;;;;;;9.30;1.70;;;9.40;99.90;;;;;;4942594;28;20051;-77
2023/10/30 02:54:45;;;;;;;10.20;1.77;;;9.50;99.90;;;;;;4942259;29;20549;-77
2023/10/30 02:57:11;;;;;;;8.15;1.75;;;9.30;99.90;;;;;;4961764;28;20058;-76
2023/10/30 02:59:36;;;;;;;4.90;1.38;;;9.30;99.90;;;;;;4941259;29;20047;-76
2023/10/30 03:02:03;;;;;;;8.70;1.63;;;9.30;99.90;;;;;;4959782;28;20082;-76
2023/10/30 03:04:29;;;;;;;10.45;2.00;;;9.40;99.90;;;;;;4963188;28;20106;-76
2023/10/30 03:06:58;;;;;;;8.02;1.75;;;9.40;99.90;;;;;;4945834;28;20042;-70
2023/10/30 03:09:25;;;;;;;9.90;2.00;;;9.30;99.90;;;;;;4960945;28;20046;-71
2023/10/30 03:11:50;;;;;;;9.45;1.70;;;9.40;99.90;;;;;;4942081;29;20059;-75
2023/10/30 03:14:16;;;;;;;10.25;2.22;;;9.40;99.90;;;;;;4942679;28;20174;-75
2023/10/30 03:16:42;;;;;;;10.43;1.70;;;9.60;99.90;;;;;;4962438;28;20057;-76
2023/10/30 03:19:08;;;;;;;12.32;2.20;;;9.40;99.90;;;;;;4962762;28;20054;-71
2023/10/30 03:21:34;;;;;;;10.38;1.85;;;9.40;99.90;;;;;;4937432;28;20055;-76
2023/10/30 03:23:59;;;;;;;9.35;1.70;;;9.40;99.90;;;;;;4945341;28;20117;-76
2023/10/30 03:26:25;;;;;;;10.68;2.00;;;9.40;99.90;;;;;;4962778;28;20403;-68
2023/10/30 03:28:51;;;;;;;12.40;1.95;;;9.40;99.90;;;;;;4933893;28;20047;-78
2023/10/30 03:31:17;;;;;;;12.88;2.25;;;9.40;99.90;;;;;;4941913;29;20593;-78
2023/10/30 03:33:43;;;;;;;7.13;1.60;;;9.40;99.90;;;;;;4942984;28;20410;-75
2023/10/30 03:36:08;;;;;;;11.68;1.95;;;9.40;99.90;;;;;;4962516;28;20051;-77
2023/10/30 03:38:34;;;;;;;12.68;1.83;;;9.40;99.90;;;;;;4962876;28;20061;-73
2023/10/30 03:41:00;;;;;;;8.90;1.67;;;9.50;99.90;;;;;;4960024;28;20491;-73
2023/10/30 03:43:26;;;;;;;11.52;2.25;;;9.70;99.90;;;;;;4956865;28;20061;-77
2023/10/30 03:45:52;;;;;;;9.27;2.10;;;9.30;99.90;;;;;;4961117;28;20058;-73
2023/10/30 03:48:17;;;;;;;11.93;2.00;;;9.40;99.90;;;;;;4941769;29;20106;-76
2023/10/30 03:50:43;;;;;;;17.35;2.22;;;9.30;99.90;;;;;;4942242;29;20079;-75
2023/10/30 03:53:09;;;;;;;22.30;1.85;;;9.30;99.90;;;;;;4943923;28;20047;-76
2023/10/30 03:55:35;;;;;;;12.80;2.17;;;9.30;99.90;;;;;;4962532;28;20046;-71
2023/10/30 03:58:02;;;;;;;8.90;1.40;;;9.30;99.90;;;;;;4961893;28;20146;-75
2023/10/30 04:00:28;;;;;;;9.55;1.80;;;9.30;99.90;;;;;;4959396;28;20063;-74
2023/10/30 04:02:53;;;;;;;10.77;1.55;;;9.30;99.90;;;;;;4963889;28;20039;-74
2023/10/30 04:05:19;;;;;;;10.30;1.60;;;9.60;99.90;;;;;;4944920;28;20050;-75
2023/10/30 04:07:45;;;;;;;9.70;1.83;;;9.30;99.90;;;;;;4944447;28;20051;-76
2023/10/30 04:10:10;;;;;;;11.35;1.65;;;9.30;99.90;;;;;;4963121;28;20053;-72
2023/10/30 04:12:36;;;;;;;11.07;1.98;;;9.30;99.90;;;;;;4944359;28;20051;-72
2023/10/30 04:15:02;;;;;;;10.15;2.00;;;9.30;99.90;;;;;;4945723;28;20451;-69
2023/10/30 04:17:28;;;;;;;13.18;1.85;;;9.20;99.90;;;;;;4928326;28;20058;-68
2023/10/30 04:19:53;;;;;;;14.63;2.28;;;9.30;99.90;;;;;;4962682;28;20141;-73
2023/10/30 04:22:19;;;;;;;14.98;2.30;;;9.30;99.90;;;;;;4943831;28;20072;-69
2023/10/30 04:24:46;;;;;;;10.60;2.10;;;9.30;99.90;;;;;;4945361;29;20082;-73
2023/10/30 04:27:12;;;;;;;10.95;1.70;;;9.30;99.90;;;;;;4946285;29;20109;-73
2023/10/30 04:29:37;;;;;;;17.33;2.15;;;9.30;99.90;;;;;;4965224;28;20046;-75
2023/10/30 04:32:03;;;;;;;10.20;1.70;;;9.30;99.90;;;;;;4963321;28;20054;-75
2023/10/30 04:34:30;;;;;;;14.00;1.73;;;9.30;99.90;;;;;;4963531;28;20054;-77
2023/10/30 04:36:55;;;;;;;10.68;2.10;;;9.30;99.90;;;;;;4947965;28;20050;-77
2023/10/30 04:39:21;;;;;;;10.80;1.90;;;9.30;99.90;;;;;;4965465;28;20054;-72
2023/10/30 04:41:46;;;;;;;10.35;1.63;;;9.30;99.90;;;;;;4957286;28;20510;-73
2023/10/30 04:44:12;;;;;;;6.75;1.65;;;9.40;99.90;;;;;;4961663;28;20534;-73
2023/10/30 04:46:38;;;;;;;11.70;1.80;;;9.80;99.90;;;;;;4962946;28;20055;-76
2023/10/30 04:49:03;;;;;;;9.27;1.92;;;9.40;99.90;;;;;;4947844;28;20527;-76
2023/10/30 04:51:29;;;;;;;9.30;1.70;;;9.40;99.90;;;;;;4965613;28;20474;-76
2023/10/30 04:53:55;;;;;;;15.77;1.90;;;9.40;99.90;;;;;;4960762;28;20038;-72
2023/10/30 04:56:21;;;;;;;14.27;2.13;;;9.60;99.90;;;;;;4965410;28;20057;-75
2023/10/30 04:58:47;;;;;;;10.85;1.75;;;9.40;99.90;;;;;;4947361;28;20047;-76
2023/10/30 05:01:13;;;;;;;9.23;1.77;;;9.30;99.90;;;;;;4961802;28;20074;-73
2023/10/30 05:03:39;;;;;;;10.07;1.80;;;9.30;99.90;;;;;;4941058;28;20109;-77
2023/10/30 05:06:05;;;;;;;9.50;1.67;;;9.30;99.90;;;;;;4946100;28;20054;-76
2023/10/30 05:08:31;;;;;;;14.18;2.42;;;9.30;99.90;;;;;;4944567;29;20521;-77
2023/10/30 05:10:59;;;;;;;13.63;2.58;;;9.40;99.90;;;;;;4944349;29;20047;-71
2023/10/30 05:13:25;;;;;;;16.60;2.08;;;9.30;99.90;;;;;;4938700;28;20061;-75
2023/10/30 05:15:51;;;;;;;10.90;1.80;;;9.30;99.90;;;;;;4961384;28;20040;-77
2023/10/30 05:18:22;;;;;;;9.88;1.95;;;9.30;99.90;;;;;;4962712;28;20062;-77
2023/10/30 05:20:48;;;;;;;8.57;1.60;;;9.20;99.90;;;;;;4964453;28;20038;-70
2023/10/30 05:23:14;;;;;;;11.65;2.15;;;9.20;99.90;;;;;;4963718;28;20057;-74
2023/10/30 05:25:40;;;;;;;13.25;2.10;;;9.20;99.90;;;;;;4943976;29;20047;-71
2023/10/30 05:28:05;;;;;;;10.15;1.63;;;9.20;99.90;;;;;;4944048;29;20054;-74
2023/10/30 05:30:31;;;;;;;14.65;2.55;;;9.20;99.90;;;;;;4963051;28;20388;-75
2023/10/30 05:32:56;;;;;;;16.42;2.00;;;9.10;99.90;;;;;;4944904;28;20074;-77
2023/10/30 05:35:24;;;;;;;12.32;2.08;;;9.40;99.90;;;;;;4943863;29;20043;-77
2023/10/30 05:37:49;;;;;;;16.23;2.00;;;9.20;99.90;;;;;;4953736;28;20210;-75
2023/10/30 05:40:15;;;;;;;11.27;1.88;;;9.10;99.90;;;;;;4943662;29;20056;-76
2023/10/30 05:42:41;;;;;;;9.60;1.98;;;9.10;99.90;;;;;;4959737;28;20070;-75
2023/10/30 05:45:07;;;;;;;14.43;2.10;;;9.10;99.90;;;;;;4964479;28;20047;-75
2023/10/30 05:47:32;;;;;;;13.52;2.00;;;9.00;99.90;;;;;;4963973;28;20035;-76
2023/10/30 05:49:58;;;;;;;16.38;2.10;;;9.00;99.90;;;;;;4960936;28;20046;-69
2023/10/30 05:52:24;;;;;;;14.32;2.50;;;9.00;99.90;;;;;;4960906;28;20483;-76
2023/10/30 05:54:50;;;;;;;10.82;1.90;;;9.20;99.90;;;;;;4962340;28;20086;-72
2023/10/30 05:57:17;;;;;;;15.63;2.38;;;9.00;99.90;;;;;;4958556;28;20047;-79
2023/10/30 05:59:42;;;;;;;12.27;2.10;;;9.00;99.90;;;;;;4961889;28;20043;-76
2023/10/30 06:02:08;;;;;;;10.10;1.75;;;9.00;99.90;;;;;;4963061;28;20530;-76
2023/10/30 06:04:33;;;;;;;12.20;2.22;;;8.90;99.90;;;;;;4945736;28;20046;-76
2023/10/30 06:06:59;;;;;;;13.95;1.80;;;8.90;99.90;;;;;;4945261;28;20125;-70
2023/10/30 06:09:26;;;;;;;10.73;1.92;;;8.90;99.90;;;;;;4943405;29;20604;-74
2023/10/30 06:11:52;;;;;;;6.13;1.42;;;8.90;99.90;;;;;;4960480;28;20055;-73
2023/10/30 06:14:18;;;;;;;10.50;2.03;;;8.90;99.90;;;;;;4960460;28;20054;-76
2023/10/30 06:16:45;;;;;;;8.23;1.70;;;8.90;99.90;;;;;;4946856;28;20174;-76
2023/10/30 06:19:10;;;;;;;15.15;1.88;;;8.90;99.90;;;;;;4962932;28;20046;-71
2023/10/30 06:21:39;;;;;;;8.60;1.73;;;8.80;99.90;;;;;;4960194;28;20055;-77
2023/10/30 06:24:06;;;;;;;12.43;2.17;;;8.90;99.90;;;;;;4960492;28;20054;-73
2023/10/30 06:26:32;;;;;;;11.20;1.90;;;8.90;99.90;;;;;;4963574;28;20129;-76
2023/10/30 06:28:57;;;;;;;14.88;2.97;;;8.90;99.90;;;;;;4959749;28;20226;-75
2023/10/30 06:31:23;;;;;;;7.95;1.60;;;8.90;99.90;;;;;;4961072;28;20047;-76
2023/10/30 06:33:49;;;;;;;14.77;2.28;;;9.10;99.90;;;;;;4961802;28;20051;-69
2023/10/30 06:36:15;;;;;;;14.18;1.92;;;8.90;99.90;;;;;;4959254;28;20039;-76
2023/10/30 06:38:40;;;;;;;8.60;1.70;;;8.90;99.90;;;;;;4945188;28;20055;-74
2023/10/30 06:41:06;;;;;;;16.83;2.60;;;8.90;99.90;;;;;;4961426;28;20035;-71
2023/10/30 06:43:32;;;;;;;10.73;1.95;;;9.10;99.90;;;;;;4963017;28;20519;-75
2023/10/30 06:46:04;;;;;;;8.35;1.80;;;8.90;99.90;;;;;;4942533;29;20063;-76
2023/10/30 06:48:30;;;;;;;10.82;1.73;;;9.10;99.90;;;;;;4964822;28;20517;-72
2023/10/30 06:50:57;;;;;;;11.73;2.50;;;9.00;99.90;;;;;;4942984;28;20046;-71
2023/10/30 06:53:23;;;;;;;11.55;2.00;;;9.50;99.90;;;;;;4945019;28;20545;-72
2023/10/30 06:55:50;;;;;;;13.73;2.40;;;9.00;99.90;;;;;;4959219;28;20138;-75
2023/10/30 06:58:21;;;;;;;9.93;2.05;;;9.00;99.90;;;;;;4964994;28;20047;-73
2023/10/30 07:00:47;;;;;;;15.23;1.77;;;9.10;99.90;;;;;;4936757;29;20395;-74
2023/10/30 07:03:12;;;;;;;10.63;2.28;;;9.10;99.90;;;;;;4959227;28;20035;-75
2023/10/30 07:05:38;;;;;;;18.30;2.35;;;9.20;99.90;;;;;;4942496;29;20106;-77
2023/10/30 07:08:04;;;;;;;17.17;1.85;;;9.20;99.90;;;;;;4959516;28;20081;-75
2023/10/30 07:10:30;;;;;;;12.75;2.00;;;9.20;99.90;;;;;;4957459;28;20118;-70
2023/10/30 07:12:55;;;;;;;9.68;1.95;;;9.20;99.90;;;;;;4956161;28;20078;-72
2023/10/30 07:15:21;;;;;;;14.93;2.28;;;9.30;99.90;;;;;;4942818;28;20043;-75
2023/10/30 07:17:47;;;;;;;14.63;2.13;;;9.40;99.90;;;;;;4958712;28;20062;-73
2023/10/30 07:20:14;;;;;;;16.52;1.88;;;9.40;99.90;;;;;;4961567;28;20105;-72
2023/10/30 07:22:39;;;;;;;11.73;1.90;;;9.70;99.90;;;;;;4955814;28;20042;-73
2023/10/30 07:25:06;;;;;;;14.35;2.25;;;9.50;99.90;;;;;;4955522;28;20507;-70
2023/10/30 07:27:33;;;;;;;13.43;1.95;;;9.60;99.90;;;;;;4962273;28;20521;-70
2023/10/30 07:29:59;;;;;;;14.32;2.42;;;9.60;99.90;;;;;;4942583;29;20055;-68
2023/10/30 07:32:25;;;;;;;16.92;2.45;;;9.60;99.90;;;;;;4942890;28;20062;-74
2023/10/30 07:34:51;;;;;;;16.52;2.78;;;9.70;99.90;;;;;;4961962;28;20039;-77
2023/10/30 07:37:16;;;;;;;14.18;2.47;;;9.70;99.90;;;;;;4959059;28;20054;-71
2023/10/30 07:39:42;;;;;;;12.88;2.10;;;9.90;99.90;;;;;;4963159;28;20051;-76
2023/10/30 07:42:08;;;;;;;14.43;1.98;;;9.90;99.90;;;;;;4946432;28;20133;-74
2023/10/30 07:44:33;;;;;;;9.07;1.98;;;10.00;99.90;;;;;;4963233;28;20070;-77
2023/10/30 07:46:59;;;;;;;20.48;2.33;;;10.00;99.90;;;;;;4966272;28;20071;-73
2023/10/30 07:49:24;;;;;;;12.95;2.38;;;10.10;99.90;;;;;;4947101;29;20063;-74
2023/10/30 07:51:50;;;;;;;12.43;2.10;;;10.30;99.90;;;;;;4964548;28;20514;-71
2023/10/30 07:54:16;;;;;;;17.20;2.70;;;10.20;99.90;;;;;;4964735;28;20047;-75
2023/10/30 07:56:42;;;;;;;14.43;2.15;;;10.20;99.90;;;;;;4960661;28;20106;-73
2023/10/30 07:59:08;;;;;;;17.67;2.53;;;10.40;99.90;;;;;;4958373;28;20090;-74
2023/10/30 08:01:34;;;;;;;11.55;1.92;;;10.30;99.90;;;;;;4963038;28;20474;-76
2023/10/30 08:04:00;;;;;;;15.38;2.47;;;10.40;99.90;;;;;;4964183;28;20093;-75
2023/10/30 08:06:26;;;;;;;17.63;2.63;;;10.40;99.90;;;;;;4948393;28;20078;-70
2023/10/30 08:08:52;;;;;;;14.43;2.33;;;10.50;99.90;;;;;;4965914;28;20077;-75
2023/10/30 08:11:19;;;;;;;12.07;2.47;;;10.50;99.90;;;;;;4963236;28;20051;-74
2023/10/30 08:13:44;;;;;;;12.40;1.80;;;10.50;99.90;;;;;;4963419;28;20070;-72
2023/10/30 08:16:10;;;;;;;13.63;2.15;;;10.60;99.90;;;;;;4964198;28;20085;-74
2023/10/30 08:18:37;;;;;;;15.98;2.40;;;10.60;99.90;;;;;;4941175;28;20051;-70
2023/10/30 08:21:03;;;;;;;14.88;2.47;;;10.70;99.90;;;;;;4948219;28;20195;-78
2023/10/30 08:23:29;;;;;;;15.40;2.05;;;10.70;99.90;;;;;;4944984;28;20121;-78
2023/10/30 08:25:54;;;;;;;16.60;2.22;;;10.80;99.90;;;;;;4949837;29;20055;-77
2023/10/30 08:28:20;;;;;;;14.48;2.28;;;10.90;99.90;;;;;;4945729;28;20047;-77
2023/10/30 08:30:46;;;;;;;15.38;2.58;;;10.90;99.90;;;;;;4962879;28;20043;-71
2023/10/30 08:33:11;;;;;;;12.48;2.40;;;11.00;99.90;;;;;;4948984;28;20493;-76
2023/10/30 08:35:37;;;;;;;11.65;1.80;;;11.00;99.90;;;;;;4963125;28;20054;-75
2023/10/30 08:38:03;;;;;;;16.40;2.17;;;11.10;99.90;;;;;;4944718;29;20035;-75
2023/10/30 08:40:29;;;;;;;18.77;2.55;;;11.20;99.90;;;;;;4943969;28;20117;-72
2023/10/30 08:42:55;;;;;;;12.20;2.25;;;11.30;99.90;;;;;;4944487;29;20054;-70
2023/10/30 08:45:22;;;;;;;14.07;2.30;;;11.40;99.90;;;;;;4962360;28;20082;-78
2023/10/30 08:47:47;;;;;;;13.88;2.05;;;11.50;99.90;;;;;;4964324;28;20046;-78
2023/10/30 08:50:13;;;;;;;13.10;2.30;;;11.60;99.90;;;;;;4947864;28;20051;-74
2023/10/30 08:52:40;;;;;;;20.23;2.90;;;11.70;99.90;;;;;;4964003;28;20042;-70
2023/10/30 08:55:06;;;;;;;11.70;1.98;;;11.90;99.90;;;;;;4961976;28;20234;-71
2023/10/30 08:57:31;;;;;;;10.43;2.35;;;12.00;99.90;;;;;;4940188;29;20076;-77
2023/10/30 08:59:57;;;;;;;13.00;2.33;;;12.10;99.90;;;;;;4962816;28;20051;-73
2023/10/30 09:02:22;;;;;;;13.85;2.20;;;12.40;99.90;;;;;;4964777;28;20045;-75
2023/10/30 09:04:48;;;;;;;13.93;2.20;;;12.50;99.90;;;;;;4947841;28;20053;-74
2023/10/30 09:07:14;;;;;;;12.15;2.65;;;12.50;99.90;;;;;;4962154;28;20043;-78
2023/10/30 09:09:40;;;;;;;16.13;2.08;;;12.60;99.90;;;;;;4944026;29;20126;-77
2023/10/30 09:12:06;;;;;;;11.93;2.10;;;12.80;99.90;;;;;;4962215;28;20398;-74
2023/10/30 09:14:32;;;;;;;13.02;2.03;;;12.70;99.90;;;;;;4961932;28;20058;-75
2023/10/30 09:16:58;;;;;;;12.38;2.13;;;12.80;99.90;;;;;;4961588;28;20134;-74
2023/10/30 09:19:23;;;;;;;13.23;2.20;;;12.90;99.90;;;;;;4964324;28;20086;-73
2023/10/30 09:21:49;;;;;;;14.52;2.45;;;12.90;99.90;;;;;;4947168;28;20042;-72
2023/10/30 09:24:15;;;;;;;14.55;1.98;;;13.00;99.90;;;;;;4963467;28;20085;-76
2023/10/30 09:26:41;;;;;;;22.08;3.03;;;13.10;99.90;;;;;;4944254;29;20514;-71
2023/10/30 09:29:07;;;;;;;14.55;2.63;;;13.10;99.90;;;;;;4961677;28;20086;-80
2023/10/30 09:31:33;;;;;;;13.85;2.22;;;13.10;99.90;;;;;;4963280;28;20051;-78
2023/10/30 09:33:59;;;;;;;15.85;1.90;;;13.10;99.90;;;;;;4958097;28;20388;-68
2023/10/30 09:36:25;;;;;;;11.30;2.13;;;13.00;99.90;;;;;;4955863;28;20047;-69
2023/10/30 09:38:51;;;;;;;17.63;2.25;;;13.00;99.90;;;;;;4956318;28;20049;-68
2023/10/30 09:41:19;;;;;;;11.70;2.33;;;13.10;99.90;;;;;;4946646;28;20051;-72
2023/10/30 09:43:48;;;;;;;16.38;2.50;;;13.20;99.90;;;;;;4961733;28;20047;-74
2023/10/30 09:46:14;;;;;;;16.88;2.30;;;13.40;99.90;;;;;;4961579;28;20043;-74
2023/10/30 09:48:43;;;;;;;11.82;2.38;;;13.40;99.90;;;;;;4945367;28;20479;-77
2023/10/30 09:51:08;;;;;;;10.68;2.08;;;13.60;99.90;;;;;;4948033;29;20055;-76
2023/10/30 09:53:37;;;;;;;15.82;2.20;;;13.70;99.90;;;;;;4961274;28;20047;-79
2023/10/30 09:56:03;;;;;;;14.80;1.95;;;13.80;99.90;;;;;;4964262;28;20039;-77
2023/10/30 09:58:31;;;;;;;11.48;1.90;;;14.00;99.90;;;;;;4946681;28;20088;-74
2023/10/30 10:00:57;;;;;;;14.35;2.65;;;14.00;99.90;;;;;;4962084;28;20039;-72
2023/10/30 10:03:23;;;;;;;11.35;2.13;;;14.20;99.90;;;;;;4946555;28;20610;-75
2023/10/30 10:05:56;;;;;;;12.65;1.80;;;14.40;99.90;;;;;;4962037;28;20039;-76
2023/10/30 10:08:22;;;;;;;12.35;2.20;;;14.50;99.90;;;;;;4944028;29;20049;-70
2023/10/30 10:11:01;;;;;;;8.23;1.83;;;14.60;99.90;;;;;;4960305;28;20090;-71
2023/10/30 10:13:31;;;;;;;17.98;2.33;;;14.70;99.90;;;;;;4953695;28;20074;-70
2023/10/30 10:15:56;;;;;;;12.95;3.35;;;14.80;99.90;;;;;;4960578;28;20047;-73
2023/10/30 10:18:28;;;;;;;14.10;2.20;;;14.90;99.90;;;;;;4945730;28;20101;-77
2023/10/30 10:21:04;;;;;;;10.43;2.25;;;15.00;99.90;;;;;;4963583;28;20047;-79
2023/10/30 10:23:33;;;;;;;11.13;1.90;;;15.00;99.90;;;;;;4958834;28;20130;-79
2023/10/30 10:26:00;;;;;;;11.63;1.85;;;15.10;99.90;;;;;;4942752;29;20047;-73
2023/10/30 10:28:26;;;;;;;16.08;2.10;;;15.00;99.90;;;;;;4944984;28;20046;-71
2023/10/30 10:30:55;;;;;;;12.40;2.25;;;14.90;99.90;;;;;;4963477;28;20051;-70
2023/10/30 10:33:22;;;;;;;7.32;1.80;;;14.80;99.90;;;;;;4962492;28;20086;-73
2023/10/30 10:35:53;;;;;;;9.57;1.67;;;14.90;99.90;;;;;;4960029;28;20047;-73
2023/10/30 10:38:19;;;;;;;12.60;2.42;;;14.80;99.90;;;;;;4960385;28;20054;-73
2023/10/30 10:40:47;;;;;;;12.68;2.45;;;14.70;99.90;;;;;;4962966;28;20037;-76
2023/10/30 10:43:15;;;;;;;13.85;2.80;;;14.60;99.90;;;;;;4957797;28;20130;-71
2023/10/30 10:45:41;;;;;;;12.88;1.98;;;14.60;99.90;;;;;;4961873;28;20056;-72
2023/10/30 10:48:07;;;;;;;17.08;2.03;;;14.50;99.90;;;;;;4945818;28;20057;-73
2023/10/30 10:50:34;;;;;;;12.60;1.92;;;14.50;99.90;;;;;;4959831;28;20126;-75
2023/10/30 10:53:02;;;;;;;14.13;2.28;;;14.50;99.90;;;;;;4960557;28;20098;-71
2023/10/30 10:55:31;;;;;;;12.80;2.28;;;14.60;99.90;;;;;;4960117;28;20164;-69
2023/10/30 10:58:21;;;;;;;15.75;2.40;;;14.40;99.90;;;;;;4962573;28;20047;-70
2023/10/30 11:00:52;;;;;;;11.70;2.25;;;14.40;99.90;;;;;;4962707;28;20145;-71
2023/10/30 11:03:19;;;;;;;11.00;2.33;;;14.50;99.90;;;;;;4959492;28;20047;-70
2023/10/30 11:05:50;;;;;;;13.90;2.63;;;14.40;99.90;;;;;;4942637;28;20499;-74
2023/10/30 11:08:50;;;;;;;14.85;2.72;;;14.40;99.90;;;;;;4930248;28;20043;-76
2023/10/30 11:11:40;;;;;;;14.10;2.22;;;14.40;99.90;;;;;;4959457;28;20039;-70
2023/10/30 11:14:22;;;;;;;13.77;2.60;;;14.50;99.90;;;;;;4943247;28;20114;-72
2023/10/30 11:17:01;;;;;;;13.98;2.22;;;14.60;99.90;;;;;;4962565;28;20042;-74
2023/10/30 11:19:37;;;;;;;11.43;1.88;;;14.60;99.90;;;;;;4955780;28;20402;-72
2023/10/30 11:22:03;;;;;;;17.42;2.33;;;14.60;99.90;;;;;;4958542;28;20065;-72
2023/10/30 11:24:40;;;;;;;10.27;1.85;;;14.80;99.90;;;;;;4962539;28;20050;-74
2023/10/30 11:27:25;;;;;;;15.52;2.03;;;14.90;99.90;;;;;;4962721;28;20050;-74
2023/10/30 11:30:06;;;;;;;9.32;1.95;;;15.10;99.90;;;;;;4947214;28;20065;-72
2023/10/30 11:32:49;;;;;;;11.20;2.47;;;15.20;99.90;;;;;;4961330;28;20059;-80
2023/10/30 11:35:19;;;;;;;16.10;2.35;;;15.30;99.90;;;;;;4961614;28;20043;-88
2023/10/30 11:37:45;;;;;;;11.27;2.08;;;15.30;99.90;;;;;;4955145;28;20043;-68
2023/10/30 11:40:15;;;;;;;14.52;2.42;;;15.10;99.90;;;;;;4963309;28;20062;-81
2023/10/30 11:42:43;;;;;;;11.52;2.30;;;15.10;99.90;;;;;;4961532;28;20057;-80
2023/10/30 11:45:30;;;;;;;11.68;2.22;;;14.90;99.90;;;;;;4962446;28;20051;-75
2023/10/30 11:48:02;;;;;;;16.40;2.38;;;14.90;99.90;;;;;;4958782;28;20042;-79
2023/10/30 11:50:31;;;;;;;15.80;2.45;;;14.90;99.90;;;;;;4959583;28;20216;-79
2023/10/30 11:53:08;;;;;;;13.40;2.30;;;15.00;99.90;;;;;;4962145;28;20038;-72
2023/10/30 11:55:39;;;;;;;10.85;2.47;;;15.10;99.90;;;;;;4962281;28;20050;-87
2023/10/30 11:58:05;;;;;;;8.50;1.73;;;15.20;99.90;;;;;;4937761;29;20054;-73
2023/10/30 12:00:30;;;;;;;16.88;2.20;;;15.40;99.90;;;;;;4942078;29;20518;-72
2023/10/30 12:02:57;;;;;;;12.10;2.33;;;15.50;99.90;;;;;;4943531;28;20047;-75
2023/10/30 12:05:25;;;;;;;10.68;2.35;;;15.40;99.90;;;;;;4942651;29;20047;-71
2023/10/30 12:07:51;;;;;;;10.07;2.03;;;15.40;99.90;;;;;;4959902;28;20187;-71
2023/10/30 12:10:18;;;;;;;13.88;1.73;;;15.30;99.90;;;;;;4945361;28;20125;-74
2023/10/30 12:12:44;;;;;;;9.40;1.80;;;15.30;99.90;;;;;;4958369;28;20130;-75
2023/10/30 12:15:10;;;;;;;12.15;2.15;;;15.20;99.90;;;;;;4960817;28;20079;-71
2023/10/30 12:17:36;;;;;;;12.65;1.75;;;15.20;99.90;;;;;;4962149;28;20062;-70
2023/10/30 12:20:03;;;;;;;15.82;2.10;;;15.10;99.90;;;;;;4961938;28;20054;-69
2023/10/30 12:22:29;;;;;;;10.10;1.90;;;15.00;99.90;;;;;;4958893;28;20043;-69
2023/10/30 12:24:56;;;;;;;11.77;2.22;;;15.00;99.90;;;;;;4959191;28;20053;-75
2023/10/30 12:27:23;;;;;;;13.52;2.20;;;15.00;99.90;;;;;;4963101;28;20134;-71
2023/10/30 12:29:55;;;;;;;15.50;2.63;;;15.10;99.90;;;;;;4944348;29;20050;-73
2023/10/30 12:32:21;;;;;;;16.60;2.28;;;15.00;99.90;;;;;;4963661;28;20055;-77
2023/10/30 12:34:46;;;;;;;15.48;2.35;;;15.00;99.90;;;;;;4964908;28;20062;-73
2023/10/30 12:37:24;;;;;;;11.57;1.90;;;15.10;99.90;;;;;;4949076;29;20150;-79
2023/10/30 12:40:03;;;;;;;11.95;1.85;;;15.00;99.90;;;;;;4955426;28;20114;-76
2023/10/30 12:42:29;;;;;;;13.75;2.28;;;15.10;99.90;;;;;;4962662;28;20047;-70
2023/10/30 12:44:55;;;;;;;10.52;1.98;;;15.00;99.90;;;;;;4967505;28;20050;-75